Time;durP1;ratioP1;P1;durP2;ratioP2;P2;SDS_P1;SDS_P2;PMS_P1;PMS_P2;Temp;Humidity;BMP_temperature;BMP_pressure;BME280_temperature;BME280_humidity;BME280_pressure;Samples;Min_cycle;Max_cycle;Signal;HPM_P1;HPM_P2
2022/02/27 00:01:01;;;;;;;36.03;18.77;;;;;;;5.57;85.73;98031.50;5035673;28;20047;-82
2022/02/27 00:03:27;;;;;;;38.78;19.35;;;;;;;5.63;85.40;98031.28;5035636;28;20091;-82
2022/02/27 00:05:52;;;;;;;38.00;19.25;;;;;;;5.60;85.61;98028.75;5027336;28;20045;-81
2022/02/27 00:08:18;;;;;;;38.42;20.38;;;;;;;5.62;85.51;98031.38;5030562;28;20380;-81
2022/02/27 00:10:44;;;;;;;40.80;20.50;;;;;;;5.65;85.36;98020.66;5040584;28;20033;-82
2022/02/27 00:13:09;;;;;;;38.30;20.55;;;;;;;5.64;85.60;98016.25;5021140;28;20053;-83
2022/02/27 00:15:35;;;;;;;45.72;20.38;;;;;;;5.60;85.80;98007.53;5035880;28;20231;-83
2022/02/27 00:18:00;;;;;;;37.92;20.35;;;;;;;5.63;86.55;98012.72;5027231;28;20608;-83
2022/02/27 00:20:26;;;;;;;36.75;19.25;;;;;;;5.57;86.96;98010.28;5035477;28;20029;-83
2022/02/27 00:22:52;;;;;;;37.85;18.35;;;;;;;5.50;87.74;98022.03;5035386;28;20028;-83
2022/02/27 00:25:17;;;;;;;36.38;19.50;;;;;;;5.46;88.49;98017.75;5006049;28;20037;-82
2022/02/27 00:27:43;;;;;;;37.22;19.23;;;;;;;5.54;88.27;98018.34;5040854;28;20050;-82
2022/02/27 00:30:09;;;;;;;39.90;19.55;;;;;;;5.56;88.50;98008.56;5023835;28;20029;-82
2022/02/27 00:32:37;;;;;;;34.92;18.90;;;;;;;5.57;88.50;98020.91;5030432;28;20060;-82
2022/02/27 00:35:03;;;;;;;36.47;18.48;;;;;;;5.55;88.65;98011.25;5035452;28;20437;-81
2022/02/27 00:37:29;;;;;;;35.47;18.58;;;;;;;5.43;88.86;97992.22;5025988;28;20021;-83
2022/02/27 00:39:54;;;;;;;37.47;19.35;;;;;;;5.43;89.71;98000.16;5027647;28;20029;-82
2022/02/27 00:42:20;;;;;;;31.45;17.25;;;;;;;5.37;90.22;97995.06;5018200;28;20520;-82
2022/02/27 00:44:46;;;;;;;33.80;16.70;;;;;;;5.31;90.61;98000.59;5024138;28;20029;-83
2022/02/27 00:47:11;;;;;;;33.25;17.42;;;;;;;5.09;91.83;97996.91;5023288;28;20634;-83
2022/02/27 00:49:37;;;;;;;33.55;17.75;;;;;;;4.96;92.56;97976.13;5020332;28;20464;-82
2022/02/27 00:52:03;;;;;;;37.17;19.02;;;;;;;5.05;92.86;97981.13;5029004;28;20111;-83
2022/02/27 00:54:28;;;;;;;38.47;17.55;;;;;;;5.09;92.61;97982.78;5039536;28;20029;-81
2022/02/27 00:56:54;;;;;;;38.42;18.33;;;;;;;5.03;92.82;97980.34;5018298;28;20037;-82
2022/02/27 00:59:20;;;;;;;41.55;18.92;;;;;;;4.95;93.55;97987.69;5044392;28;20021;-83
2022/02/27 01:01:46;;;;;;;35.53;18.83;;;;;;;4.84;93.94;97974.75;5025482;28;20112;-83
2022/02/27 01:04:11;;;;;;;35.83;19.60;;;;;;;4.82;93.82;97966.88;5011837;28;20060;-85
2022/02/27 01:06:37;;;;;;;42.10;20.55;;;;;;;4.76;93.83;97960.91;5028314;28;20041;-83
2022/02/27 01:09:03;;;;;;;39.90;20.92;;;;;;;4.74;93.68;97960.94;5022868;28;20098;-82
2022/02/27 01:11:30;;;;;;;52.03;24.38;;;;;;;4.62;93.40;97969.28;5028929;28;20040;-82
2022/02/27 01:13:56;;;;;;;44.30;22.23;;;;;;;4.61;93.56;97950.81;5037268;28;20051;-82
2022/02/27 01:16:25;;;;;;;47.35;23.85;;;;;;;4.69;93.76;97968.19;5018588;28;20055;-81
2022/02/27 01:18:51;;;;;;;57.13;25.20;;;;;;;4.62;92.96;97973.72;5048740;28;20032;-82
2022/02/27 01:21:16;;;;;;;48.03;25.60;;;;;;;4.58;93.15;97977.41;5023421;28;20021;-82
2022/02/27 01:23:43;;;;;;;52.25;24.73;;;;;;;4.45;94.36;97960.13;5034015;28;20016;-82
2022/02/27 01:26:09;;;;;;;49.03;23.63;;;;;;;4.35;95.15;97946.31;5025094;28;20111;-81
2022/02/27 01:28:35;;;;;;;49.65;25.48;;;;;;;4.32;96.19;97941.13;5031935;28;20109;-83
2022/02/27 01:31:01;;;;;;;49.70;25.15;;;;;;;4.27;96.35;97932.47;5045131;28;20047;-83
2022/02/27 01:33:26;;;;;;;47.15;24.27;;;;;;;4.15;97.46;97941.63;5025819;28;20069;-83
2022/02/27 01:35:52;;;;;;;48.17;25.35;;;;;;;4.06;98.22;97943.69;5030516;28;20155;-82
2022/02/27 01:38:17;;;;;;;50.97;24.38;;;;;;;4.05;98.31;97949.91;5045865;28;20065;-82
2022/02/27 01:40:43;;;;;;;52.10;25.63;;;;;;;4.19;98.49;97966.22;5034584;28;20506;-82
2022/02/27 01:43:09;;;;;;;51.15;25.05;;;;;;;4.18;98.53;97967.16;5024981;28;20566;-82
2022/02/27 01:45:34;;;;;;;49.33;25.77;;;;;;;4.14;98.48;97960.22;5030154;28;20032;-83
2022/02/27 01:48:00;;;;;;;61.75;29.38;;;;;;;4.38;97.69;97981.50;5028959;28;20043;-82
2022/02/27 01:50:26;;;;;;;71.15;32.55;;;;;;;4.45;96.83;97976.03;5023766;28;20028;-82
2022/02/27 01:52:52;;;;;;;62.75;32.28;;;;;;;4.55;96.16;97972.19;5023552;28;20035;-82
2022/02/27 01:55:18;;;;;;;63.78;29.45;;;;;;;4.66;95.17;97980.66;5021607;28;20467;-83
2022/02/27 01:57:44;;;;;;;46.60;22.88;;;;;;;4.69;96.20;97984.06;5025793;28;20473;-83
2022/02/27 02:00:10;;;;;;;37.22;20.48;;;;;;;4.64;96.85;97972.78;5050221;28;20439;-84
2022/02/27 02:02:36;;;;;;;33.75;18.65;;;;;;;4.70;97.31;97983.19;5016801;28;20115;-82
2022/02/27 02:05:03;;;;;;;31.85;18.05;;;;;;;4.68;97.81;97971.75;5029591;28;20028;-82
2022/02/27 02:07:28;;;;;;;40.50;19.38;;;;;;;4.62;98.38;97958.69;5025718;28;20124;-82
2022/02/27 02:09:54;;;;;;;40.40;20.70;;;;;;;4.68;97.94;97953.19;5020935;28;20032;-82
2022/02/27 02:12:20;;;;;;;41.20;20.13;;;;;;;4.69;97.47;97957.59;5023650;28;20041;-83
2022/02/27 02:14:45;;;;;;;40.42;20.52;;;;;;;4.55;97.54;97935.97;5002765;28;20044;-82
2022/02/27 02:17:11;;;;;;;34.30;18.77;;;;;;;4.67;97.69;97946.19;5019077;28;20056;-81
2022/02/27 02:19:37;;;;;;;38.65;16.88;;;;;;;4.64;97.93;97962.19;5025846;28;20017;-81
2022/02/27 02:22:03;;;;;;;39.70;18.38;;;;;;;4.58;98.20;97951.78;5031003;28;20049;-82
2022/02/27 02:24:29;;;;;;;29.90;16.52;;;;;;;4.65;97.70;97963.88;5024428;28;20028;-82
2022/02/27 02:26:55;;;;;;;31.98;17.33;;;;;;;4.55;98.45;97954.53;5033187;28;20025;-83
2022/02/27 02:29:22;;;;;;;32.92;17.52;;;;;;;4.64;97.95;97967.47;5041826;28;20025;-82
2022/02/27 02:31:51;;;;;;;38.55;19.15;;;;;;;4.48;97.75;97942.38;5022443;28;20025;-82
2022/02/27 02:34:20;;;;;;;33.85;18.05;;;;;;;4.62;97.60;97969.28;5017394;28;20108;-82
2022/02/27 02:36:47;;;;;;;37.15;18.20;;;;;;;4.68;97.38;97984.13;5025959;28;20033;-83
2022/02/27 02:39:15;;;;;;;35.75;18.92;;;;;;;4.70;97.78;97995.56;5024654;28;20040;-81
2022/02/27 02:41:41;;;;;;;35.03;19.92;;;;;;;4.60;98.09;97983.50;5029452;28;20052;-83
2022/02/27 02:44:07;;;;;;;36.53;20.08;;;;;;;4.64;98.77;97972.78;5017567;28;20513;-82
2022/02/27 02:46:35;;;;;;;38.05;19.13;;;;;;;4.68;99.27;97971.75;5022283;28;20052;-82
2022/02/27 02:49:04;;;;;;;39.15;18.52;;;;;;;4.68;99.56;97955.84;5002427;28;20030;-83
2022/02/27 02:51:30;;;;;;;39.42;18.35;;;;;;;4.69;98.85;97935.53;5029446;28;20491;-83
2022/02/27 02:53:55;;;;;;;35.05;17.38;;;;;;;4.76;98.41;97929.97;5030329;28;20031;-84
2022/02/27 02:56:21;;;;;;;33.70;18.02;;;;;;;4.59;97.77;97916.41;5036432;28;20113;-83
2022/02/27 02:58:47;;;;;;;36.83;18.05;;;;;;;4.52;98.91;97938.72;5020963;28;20025;-83
2022/02/27 03:01:16;;;;;;;36.47;19.05;;;;;;;4.61;99.04;97972.00;5043200;28;20428;-83
2022/02/27 03:03:43;;;;;;;39.58;20.33;;;;;;;4.53;99.62;97987.25;5014498;28;20411;-82
2022/02/27 03:06:10;;;;;;;34.97;18.30;;;;;;;4.51;99.65;97986.44;5023874;28;20426;-81
2022/02/27 03:08:37;;;;;;;36.35;18.08;;;;;;;4.50;98.66;97980.25;5005072;28;20218;-82
2022/02/27 03:11:02;;;;;;;37.13;17.35;;;;;;;4.56;98.75;97995.09;5046628;28;20485;-82
2022/02/27 03:13:28;;;;;;;35.15;17.90;;;;;;;4.52;98.98;98012.88;5046140;28;20052;-82
2022/02/27 03:15:54;;;;;;;31.27;17.65;;;;;;;4.54;99.53;98021.66;5033382;28;20036;-82
2022/02/27 03:18:19;;;;;;;36.22;18.45;;;;;;;4.55;98.87;98018.09;5030228;28;20040;-83
2022/02/27 03:20:45;;;;;;;32.88;17.40;;;;;;;4.57;98.37;98026.84;5019646;28;20032;-82
2022/02/27 03:23:11;;;;;;;37.22;17.88;;;;;;;4.67;97.59;98036.25;5034354;28;20137;-82
2022/02/27 03:25:38;;;;;;;35.05;17.65;;;;;;;4.64;98.06;98014.28;5032625;28;20068;-82
2022/02/27 03:28:03;;;;;;;33.10;17.13;;;;;;;4.63;98.45;98004.59;5039234;28;20127;-82
2022/02/27 03:30:30;;;;;;;31.02;16.73;;;;;;;4.70;98.66;98009.66;5044582;28;20185;-81
2022/02/27 03:32:55;;;;;;;31.05;17.25;;;;;;;4.71;98.76;98024.63;5044911;28;20136;-83
2022/02/27 03:35:21;;;;;;;33.45;17.48;;;;;;;4.69;98.52;98031.78;5030547;28;20029;-83
2022/02/27 03:37:50;;;;;;;36.70;18.88;;;;;;;4.72;98.83;98036.97;5034198;28;20044;-82
2022/02/27 03:40:18;;;;;;;29.10;17.90;;;;;;;4.69;98.39;98038.84;5035969;28;20120;-83
2022/02/27 03:42:44;;;;;;;33.60;17.40;;;;;;;4.59;97.92;98032.97;5036340;28;20031;-81
2022/02/27 03:45:11;;;;;;;33.72;18.13;;;;;;;4.49;98.58;98042.09;5025317;28;20057;-82
2022/02/27 03:47:37;;;;;;;31.17;16.92;;;;;;;4.55;98.23;98049.00;5037687;28;20037;-82
2022/02/27 03:50:02;;;;;;;37.63;18.92;;;;;;;4.57;98.37;98053.34;5028615;28;20052;-81
2022/02/27 03:52:35;;;;;;;32.70;18.33;;;;;;;4.59;98.42;98048.84;5025623;28;20420;-82
2022/02/27 03:55:02;;;;;;;35.35;17.90;;;;;;;4.63;98.23;98045.22;5039027;28;20499;-77
2022/02/27 03:57:27;;;;;;;36.38;17.70;;;;;;;4.58;98.08;98036.53;5026929;28;20040;-83
2022/02/27 03:59:53;;;;;;;32.80;17.42;;;;;;;4.58;98.14;98044.50;5021715;28;20024;-83
2022/02/27 04:02:19;;;;;;;32.67;18.40;;;;;;;4.54;98.02;98028.72;5035842;28;20040;-82
2022/02/27 04:04:44;;;;;;;38.63;17.38;;;;;;;4.58;97.95;98035.66;5021202;28;20066;-81
2022/02/27 04:07:10;;;;;;;33.97;17.08;;;;;;;4.52;99.07;98042.03;5037882;28;20033;-81
2022/02/27 04:09:35;;;;;;;36.53;17.88;;;;;;;4.26;99.88;98026.03;5032356;28;20555;-81
2022/02/27 04:12:01;;;;;;;34.38;19.13;;;;;;;4.38;100.00;98025.66;5044531;28;20056;-81
2022/02/27 04:14:27;;;;;;;38.00;18.42;;;;;;;4.43;100.00;98020.25;5030503;28;20411;-81
2022/02/27 04:16:52;;;;;;;38.97;20.02;;;;;;;4.40;100.00;98021.16;5038251;28;20024;-81
2022/02/27 04:19:18;;;;;;;37.72;20.38;;;;;;;4.32;100.00;98016.13;5043574;28;20024;-82
2022/02/27 04:21:43;;;;;;;32.60;18.45;;;;;;;4.47;100.00;98035.09;5035319;28;20460;-81
2022/02/27 04:24:09;;;;;;;32.63;17.33;;;;;;;4.36;99.36;98016.91;5029684;28;20097;-81
2022/02/27 04:26:34;;;;;;;36.55;17.35;;;;;;;4.34;99.03;97997.53;5038603;28;20137;-82
2022/02/27 04:29:00;;;;;;;37.75;18.27;;;;;;;4.34;98.60;98000.19;5027861;28;20117;-82
2022/02/27 04:31:25;;;;;;;40.53;19.38;;;;;;;4.35;99.09;98018.69;5034802;28;20036;-82
2022/02/27 04:33:51;;;;;;;41.20;18.67;;;;;;;4.37;98.97;98031.84;5026731;28;20028;-82
2022/02/27 04:36:16;;;;;;;43.03;21.02;;;;;;;4.32;98.70;98012.59;5032947;28;20021;-82
2022/02/27 04:38:42;;;;;;;38.33;19.60;;;;;;;4.32;98.77;98033.78;5037880;28;20047;-82
2022/02/27 04:41:08;;;;;;;44.83;21.70;;;;;;;4.41;98.40;98038.81;5037677;28;20047;-81
2022/02/27 04:43:33;;;;;;;53.10;22.15;;;;;;;4.37;98.26;98037.16;5034522;28;20127;-83
2022/02/27 04:45:59;;;;;;;37.88;20.13;;;;;;;4.31;98.52;98042.63;5037611;28;20016;-81
2022/02/27 04:48:25;;;;;;;42.30;20.60;;;;;;;4.29;99.15;98052.41;5035243;28;20021;-81
2022/02/27 04:50:50;;;;;;;43.58;20.08;;;;;;;4.33;99.11;98051.41;5050879;28;20392;-82
2022/02/27 04:53:16;;;;;;;50.05;21.77;;;;;;;4.35;98.76;98050.47;5037300;28;20105;-81
2022/02/27 04:55:41;;;;;;;40.53;21.77;;;;;;;4.21;98.84;98036.75;5026566;28;20035;-81
2022/02/27 04:58:08;;;;;;;39.10;20.10;;;;;;;4.20;99.33;98066.78;5029293;28;20449;-81
2022/02/27 05:00:34;;;;;;;35.17;19.42;;;;;;;3.95;100.00;98046.34;5026773;28;20017;-83
2022/02/27 05:02:59;;;;;;;33.85;18.55;;;;;;;4.07;100.00;98054.81;5020466;28;20029;-81
2022/02/27 05:05:25;;;;;;;35.33;18.98;;;;;;;4.10;100.00;98046.78;5034040;28;20024;-81
2022/02/27 05:07:50;;;;;;;37.92;17.80;;;;;;;3.99;100.00;98040.06;5034511;28;20059;-82
2022/02/27 05:10:16;;;;;;;34.15;17.80;;;;;;;4.11;100.00;98066.19;5034213;28;20060;-81
2022/02/27 05:12:42;;;;;;;41.45;19.75;;;;;;;4.07;100.00;98067.16;5040365;28;20052;-81
2022/02/27 05:15:09;;;;;;;43.05;21.13;;;;;;;3.98;100.00;98044.47;5028906;28;20020;-82
2022/02/27 05:17:35;;;;;;;35.22;18.83;;;;;;;4.07;100.00;98059.22;5023762;28;20051;-82
2022/02/27 05:20:02;;;;;;;38.33;19.83;;;;;;;4.14;100.00;98071.38;5047853;28;20024;-81
2022/02/27 05:22:28;;;;;;;38.78;20.52;;;;;;;4.15;100.00;98062.53;5019964;28;20107;-82
2022/02/27 05:24:53;;;;;;;43.05;21.60;;;;;;;4.15;100.00;98059.91;5016877;28;20120;-84
2022/02/27 05:27:19;;;;;;;52.35;25.67;;;;;;;4.01;100.00;98064.69;5036967;28;20385;-81
2022/02/27 05:29:44;;;;;;;50.10;23.88;;;;;;;3.91;100.00;98034.97;5021053;28;20028;-81
2022/02/27 05:32:10;;;;;;;49.47;23.67;;;;;;;4.08;100.00;98060.97;5021542;28;20032;-81
2022/02/27 05:34:36;;;;;;;59.20;28.50;;;;;;;4.07;100.00;98068.03;5027267;28;20035;-82
2022/02/27 05:37:01;;;;;;;58.53;28.02;;;;;;;4.05;100.00;98054.00;5036865;28;20031;-82
2022/02/27 05:39:27;;;;;;;65.15;30.15;;;;;;;3.99;100.00;98061.22;5027538;28;20029;-82
2022/02/27 05:41:52;;;;;;;72.75;32.38;;;;;;;4.04;100.00;98059.31;5048722;28;20032;-82
2022/02/27 05:44:18;;;;;;;68.88;32.80;;;;;;;3.81;100.00;98042.28;5036714;28;20121;-83
2022/02/27 05:46:44;;;;;;;60.78;28.90;;;;;;;4.00;100.00;98074.41;5028289;28;20029;-81
2022/02/27 05:49:09;;;;;;;59.75;30.08;;;;;;;4.02;100.00;98087.59;5020591;28;20025;-82
2022/02/27 05:51:35;;;;;;;61.88;28.85;;;;;;;4.01;100.00;98077.91;5027483;28;20028;-81
2022/02/27 05:54:00;;;;;;;49.30;26.23;;;;;;;4.00;100.00;98073.56;5024729;28;20403;-81
2022/02/27 05:56:26;;;;;;;47.13;24.13;;;;;;;4.12;100.00;98073.22;5028381;28;20063;-84
2022/02/27 05:58:52;;;;;;;46.20;22.63;;;;;;;4.09;100.00;98044.19;5025186;28;20087;-82
2022/02/27 06:01:18;;;;;;;41.25;22.42;;;;;;;4.09;100.00;98060.91;5032928;28;20037;-82
2022/02/27 06:03:43;;;;;;;48.95;23.17;;;;;;;4.05;100.00;98056.63;5038433;28;20401;-82
2022/02/27 06:06:09;;;;;;;43.38;22.38;;;;;;;4.16;100.00;98054.53;5033513;28;20029;-82
2022/02/27 06:08:35;;;;;;;40.92;22.00;;;;;;;3.79;100.00;98036.19;5043374;28;20099;-81
2022/02/27 06:11:01;;;;;;;49.80;23.63;;;;;;;3.82;100.00;98045.78;5032019;28;20035;-79
2022/02/27 06:13:27;;;;;;;47.72;24.60;;;;;;;3.90;100.00;98066.78;5027912;28;20102;-81
2022/02/27 06:15:53;;;;;;;44.50;22.58;;;;;;;3.86;100.00;98049.22;5036417;28;20056;-80
2022/02/27 06:18:18;;;;;;;54.30;24.27;;;;;;;3.86;100.00;98038.66;5033840;28;20134;-81
2022/02/27 06:20:44;;;;;;;48.28;23.73;;;;;;;4.00;100.00;98047.09;5024977;28;20020;-86
2022/02/27 06:23:11;;;;;;;45.30;21.35;;;;;;;4.03;100.00;98052.31;5024466;28;20513;-86
2022/02/27 06:25:36;;;;;;;51.38;25.35;;;;;;;4.01;100.00;98049.69;4985014;28;20079;-73
2022/02/27 06:28:03;;;;;;;48.78;24.48;;;;;;;3.90;100.00;98057.06;5065835;28;20345;-88
2022/02/27 06:30:28;;;;;;;53.28;25.50;;;;;;;3.93;100.00;98070.22;5028079;28;20037;-89
2022/02/27 06:32:54;;;;;;;57.13;26.38;;;;;;;4.00;100.00;98074.41;5031417;28;20111;-88
2022/02/27 06:35:23;;;;;;;47.35;24.55;;;;;;;3.87;100.00;98083.59;5038900;28;20028;-74
2022/02/27 06:37:49;;;;;;;57.42;26.63;;;;;;;3.93;100.00;98093.16;5036361;28;20036;-74
2022/02/27 06:40:15;;;;;;;46.25;24.33;;;;;;;3.86;100.00;98086.28;5044756;28;20040;-73
2022/02/27 06:42:41;;;;;;;41.08;21.08;;;;;;;3.84;100.00;98089.81;5036563;28;20063;-85
2022/02/27 06:45:07;;;;;;;43.65;22.80;;;;;;;3.69;100.00;98092.03;5039320;28;20041;-88
2022/02/27 06:47:33;;;;;;;42.28;23.08;;;;;;;3.55;100.00;98092.38;5013175;28;20039;-83
2022/02/27 06:49:59;;;;;;;83.10;42.22;;;;;;;3.61;100.00;98091.34;5028651;28;20028;-86
2022/02/27 06:52:25;;;;;;;147.13;71.10;;;;;;;3.59;100.00;98090.53;5034870;28;20059;-87
2022/02/27 06:54:51;;;;;;;53.33;24.95;;;;;;;3.65;100.00;98093.88;5015413;28;20033;-86
2022/02/27 06:57:17;;;;;;;51.10;23.10;;;;;;;3.59;100.00;98091.41;5023169;28;20128;-85
2022/02/27 06:59:42;;;;;;;67.63;24.90;;;;;;;3.59;100.00;98088.75;5027226;28;20461;-84
2022/02/27 07:02:08;;;;;;;53.30;26.88;;;;;;;3.50;100.00;98066.97;5036047;28;20025;-74
2022/02/27 07:04:34;;;;;;;66.47;35.03;;;;;;;3.55;100.00;98097.66;5052558;28;20085;-84
2022/02/27 07:06:59;;;;;;;47.78;25.88;;;;;;;3.43;100.00;98097.09;5053878;28;20400;-86
2022/02/27 07:09:25;;;;;;;82.05;41.13;;;;;;;3.25;100.00;98083.44;5031909;28;20043;-87
2022/02/27 07:11:52;;;;;;;51.15;26.00;;;;;;;3.23;100.00;98094.97;5037712;28;20432;-85
2022/02/27 07:14:18;;;;;;;46.58;24.25;;;;;;;3.27;100.00;98092.19;5032152;28;20037;-85
2022/02/27 07:16:44;;;;;;;50.75;25.70;;;;;;;3.27;100.00;98102.75;5033303;28;20028;-87
2022/02/27 07:19:10;;;;;;;78.55;34.78;;;;;;;3.34;100.00;98102.59;5032723;28;20401;-88
2022/02/27 07:21:35;;;;;;;53.80;29.13;;;;;;;3.37;100.00;98106.06;5023867;28;20361;-85
2022/02/27 07:24:01;;;;;;;58.88;29.50;;;;;;;3.51;100.00;98106.56;5026239;28;20039;-86
2022/02/27 07:26:27;;;;;;;67.13;33.00;;;;;;;3.42;100.00;98101.50;5032780;28;20396;-86
2022/02/27 07:28:52;;;;;;;51.83;25.73;;;;;;;3.39;100.00;98098.94;5029994;28;20032;-84
2022/02/27 07:31:19;;;;;;;54.53;24.48;;;;;;;3.37;100.00;98107.81;5035358;28;20442;-84
2022/02/27 07:33:44;;;;;;;47.53;25.63;;;;;;;3.29;100.00;98090.38;5039604;28;20539;-84
2022/02/27 07:36:10;;;;;;;46.75;23.60;;;;;;;3.37;100.00;98098.13;5024881;28;20076;-87
2022/02/27 07:38:36;;;;;;;51.38;23.80;;;;;;;3.28;100.00;98086.00;5027753;28;20040;-85
2022/02/27 07:41:02;;;;;;;64.07;33.70;;;;;;;3.03;100.00;98082.22;5028312;28;20036;-89
2022/02/27 07:43:27;;;;;;;43.13;22.55;;;;;;;3.03;100.00;98090.13;5028383;28;20029;-89
2022/02/27 07:46:05;;;;;;;49.92;25.33;;;;;;;2.95;100.00;98089.47;5031065;28;20401;-86
2022/02/27 07:48:33;;;;;;;47.47;23.15;;;;;;;2.96;100.00;98080.59;5038954;28;20039;-86
2022/02/27 07:51:00;;;;;;;51.00;25.25;;;;;;;2.92;100.00;98088.66;5031817;28;20450;-86
2022/02/27 07:53:26;;;;;;;59.03;27.13;;;;;;;3.00;100.00;98098.13;5033066;28;20021;-85
2022/02/27 07:55:52;;;;;;;55.42;25.27;;;;;;;2.92;100.00;98084.25;5029664;28;20040;-86
2022/02/27 07:58:17;;;;;;;50.28;25.90;;;;;;;2.83;100.00;98086.22;5022010;28;20083;-87
2022/02/27 08:00:43;;;;;;;53.45;26.92;;;;;;;2.82;100.00;98077.44;5034417;28;20184;-86
2022/02/27 08:03:09;;;;;;;92.32;43.08;;;;;;;2.83;100.00;98067.75;5030869;28;20036;-87
2022/02/27 08:05:35;;;;;;;58.17;30.33;;;;;;;2.83;100.00;98073.84;5021993;28;20029;-73
2022/02/27 08:08:00;;;;;;;50.75;24.80;;;;;;;2.85;100.00;98081.75;5045705;28;20024;-73
2022/02/27 08:10:27;;;;;;;77.47;35.38;;;;;;;2.83;100.00;98076.50;5035203;28;20098;-79
2022/02/27 08:12:54;;;;;;;58.38;27.50;;;;;;;2.87;100.00;98082.59;5025817;28;20098;-85
2022/02/27 08:15:20;;;;;;;99.78;40.75;;;;;;;2.68;100.00;98069.81;5025744;28;20035;-83
2022/02/27 08:17:46;;;;;;;84.30;38.55;;;;;;;2.66;100.00;98073.38;5026063;28;20480;-73
2022/02/27 08:20:12;;;;;;;84.43;37.83;;;;;;;2.65;100.00;98056.66;5056326;28;20082;-86
2022/02/27 08:22:39;;;;;;;78.53;39.38;;;;;;;2.84;100.00;98067.69;5031345;28;20115;-86
2022/02/27 08:25:06;;;;;;;71.18;34.50;;;;;;;2.77;100.00;98059.94;5026978;28;20033;-73
2022/02/27 08:27:35;;;;;;;62.63;32.30;;;;;;;2.70;100.00;98062.72;5031549;28;20526;-87
2022/02/27 08:30:00;;;;;;;71.45;34.60;;;;;;;2.85;100.00;98082.63;5036037;28;20431;-84
2022/02/27 08:32:27;;;;;;;93.13;44.10;;;;;;;2.68;100.00;98068.94;5044886;28;20028;-82
2022/02/27 08:34:53;;;;;;;72.18;35.78;;;;;;;2.58;100.00;98059.50;5030302;28;20036;-84
2022/02/27 08:37:19;;;;;;;64.47;33.88;;;;;;;2.51;100.00;98058.75;5035590;28;20390;-85
2022/02/27 08:39:45;;;;;;;79.80;36.15;;;;;;;2.59;100.00;98064.72;5042712;28;20457;-85
2022/02/27 08:42:10;;;;;;;81.65;37.40;;;;;;;2.66;100.00;98070.75;5015249;28;20040;-84
2022/02/27 08:44:36;;;;;;;83.00;37.55;;;;;;;2.76;100.00;98089.91;5019238;28;20028;-84
2022/02/27 08:47:03;;;;;;;68.50;33.53;;;;;;;2.68;100.00;98085.66;5049932;28;20025;-84
2022/02/27 08:49:28;;;;;;;74.38;37.15;;;;;;;2.71;100.00;98096.13;5024888;28;20037;-84
2022/02/27 08:51:54;;;;;;;71.55;36.08;;;;;;;2.61;100.00;98094.63;5035593;28;20032;-85
2022/02/27 08:54:19;;;;;;;66.47;32.22;;;;;;;2.68;100.00;98098.84;5038285;28;20063;-84
2022/02/27 08:56:45;;;;;;;64.78;32.80;;;;;;;2.63;100.00;98084.88;5022605;28;20381;-85
2022/02/27 08:59:10;;;;;;;68.15;34.30;;;;;;;2.64;100.00;98077.84;5024289;28;20032;-85
2022/02/27 09:01:36;;;;;;;72.93;34.97;;;;;;;2.80;100.00;98088.94;5018953;28;20052;-85
2022/02/27 09:04:04;;;;;;;74.60;37.67;;;;;;;2.71;100.00;98069.72;5050825;28;20055;-88
2022/02/27 09:06:30;;;;;;;73.63;36.40;;;;;;;2.70;100.00;98062.72;5033307;28;20519;-88
2022/02/27 09:08:55;;;;;;;76.53;38.03;;;;;;;2.82;100.00;98071.28;5026096;28;20032;-87
2022/02/27 09:11:21;;;;;;;72.15;37.72;;;;;;;2.80;100.00;98058.09;5028776;28;20581;-88
2022/02/27 09:13:47;;;;;;;75.30;38.55;;;;;;;2.84;100.00;98043.91;5040549;28;20049;-89
2022/02/27 09:16:12;;;;;;;85.72;43.55;;;;;;;2.91;100.00;98044.63;5027808;28;20047;-72
2022/02/27 09:18:38;;;;;;;74.32;39.53;;;;;;;2.80;100.00;98060.72;5033334;28;20051;-73
2022/02/27 09:21:03;;;;;;;72.18;35.08;;;;;;;2.63;100.00;98062.88;5057983;28;20047;-74
2022/02/27 09:23:29;;;;;;;69.47;35.58;;;;;;;2.68;100.00;98061.00;5062302;28;20028;-74
2022/02/27 09:25:55;;;;;;;70.50;33.53;;;;;;;2.77;100.00;98078.44;5043541;28;20033;-72
2022/02/27 09:28:21;;;;;;;75.57;36.20;;;;;;;2.87;100.00;98075.53;5032986;28;20104;-73
2022/02/27 09:30:47;;;;;;;73.50;35.85;;;;;;;2.73;100.00;98057.38;5031740;28;20032;-72
2022/02/27 09:33:13;;;;;;;61.08;30.77;;;;;;;2.59;100.00;98058.56;5025534;28;20047;-71
2022/02/27 09:35:38;;;;;;;59.35;29.88;;;;;;;2.71;100.00;98053.88;5043659;28;20162;-73
2022/02/27 09:38:05;;;;;;;119.95;55.05;;;;;;;2.87;100.00;98064.97;5059065;28;20140;-71
2022/02/27 09:40:32;;;;;;;88.82;41.30;;;;;;;2.93;100.00;98048.09;5038344;28;21150;-72
2022/02/27 09:42:58;;;;;;;57.60;29.85;;;;;;;2.80;100.00;98046.69;5057067;28;20134;-72
2022/02/27 09:45:24;;;;;;;64.88;32.78;;;;;;;2.97;100.00;98049.78;5034810;28;20072;-72
2022/02/27 09:47:53;;;;;;;66.93;32.13;;;;;;;3.20;100.00;98036.84;5063518;28;20063;-72
2022/02/27 09:50:20;;;;;;;56.50;29.13;;;;;;;3.33;100.00;98040.06;5041008;28;20702;-74
2022/02/27 09:52:46;;;;;;;48.10;24.05;;;;;;;3.36;100.00;98043.50;5034329;28;20033;-73
2022/02/27 09:55:14;;;;;;;45.92;24.27;;;;;;;3.45;100.00;98037.09;5044178;28;20047;-72
2022/02/27 09:57:42;;;;;;;56.45;29.98;;;;;;;3.45;100.00;98035.34;5030211;28;20036;-73
2022/02/27 10:00:08;;;;;;;51.33;23.98;;;;;;;3.40;100.00;98034.59;5064844;28;20035;-73
2022/02/27 10:02:34;;;;;;;46.17;23.48;;;;;;;3.54;100.00;98035.09;5036377;28;20483;-73
2022/02/27 10:05:00;;;;;;;47.60;24.88;;;;;;;3.42;100.00;98042.47;5041254;28;20021;-73
2022/02/27 10:07:26;;;;;;;47.67;25.88;;;;;;;3.48;100.00;98037.91;5044405;28;20444;-74
2022/02/27 10:10:05;;;;;;;46.08;25.38;;;;;;;3.44;100.00;98030.97;5027753;28;20057;-73
2022/02/27 10:12:31;;;;;;;43.28;24.58;;;;;;;3.39;100.00;98043.41;5021494;28;20403;-73
2022/02/27 10:15:05;;;;;;;46.88;24.67;;;;;;;3.39;100.00;98032.84;5046845;28;20036;-73
2022/02/27 10:17:36;;;;;;;49.03;24.23;;;;;;;3.29;100.00;98036.66;5047796;28;20044;-77
2022/02/27 10:20:07;;;;;;;45.28;23.95;;;;;;;3.26;100.00;98034.94;5064137;28;20490;-72
2022/02/27 10:22:52;;;;;;;48.70;25.35;;;;;;;3.29;100.00;98021.63;5023749;28;20036;-77
2022/02/27 10:25:24;;;;;;;45.95;25.15;;;;;;;3.39;100.00;98016.09;5031939;28;20086;-83
2022/02/27 10:27:58;;;;;;;46.60;23.60;;;;;;;3.32;100.00;98019.84;5026754;28;20028;-73
2022/02/27 10:30:27;;;;;;;44.83;23.92;;;;;;;3.48;100.00;98034.38;5046260;28;20123;-74
2022/02/27 10:33:00;;;;;;;46.08;22.85;;;;;;;3.42;100.00;98040.69;5027972;28;20040;-72
2022/02/27 10:35:35;;;;;;;;;;;;;;;3.50;100.00;98046.69;5046102;28;20031;-72
2022/02/27 10:38:01;;;;;;;54.28;28.30;;;;;;;3.48;100.00;98034.38;5053777;28;19997;-72
2022/02/27 10:40:35;;;;;;;64.13;33.83;;;;;;;3.46;100.00;98034.44;5039177;28;20037;-74
2022/02/27 10:43:17;;;;;;;53.75;28.45;;;;;;;3.56;100.00;98038.59;5026258;28;20032;-73
2022/02/27 10:45:43;;;;;;;60.15;30.55;;;;;;;3.42;100.00;98024.84;5054436;28;20029;-72
2022/02/27 10:48:15;;;;;;;56.47;29.98;;;;;;;3.60;100.00;98011.13;5029166;28;20036;-74
2022/02/27 10:50:47;;;;;;;50.25;26.05;;;;;;;3.53;100.00;98003.41;5060713;28;20425;-72
2022/02/27 10:53:14;;;;;;;46.90;25.00;;;;;;;3.68;100.00;98017.09;5040982;28;20036;-75
2022/02/27 10:55:59;;;;;;;42.42;21.80;;;;;;;3.64;100.00;98010.13;5036491;28;20025;-74
2022/02/27 10:58:41;;;;;;;46.22;24.00;;;;;;;3.70;100.00;98015.25;5041179;28;20017;-72
2022/02/27 11:01:24;;;;;;;54.95;28.55;;;;;;;3.66;100.00;98003.03;5048982;28;20033;-84
2022/02/27 11:03:54;;;;;;;59.78;32.53;;;;;;;3.58;100.00;98001.50;5031955;28;20032;-84
2022/02/27 11:06:20;;;;;;;62.65;31.90;;;;;;;3.36;100.00;97966.84;5032464;28;20025;-84
2022/02/27 11:08:46;;;;;;;60.03;32.30;;;;;;;3.42;100.00;97995.75;5031956;28;20028;-83
2022/02/27 11:11:13;;;;;;;70.53;36.00;;;;;;;3.24;100.00;98004.16;5034105;28;20077;-86
2022/02/27 11:13:39;;;;;;;68.38;36.70;;;;;;;3.22;100.00;97996.28;5028414;28;20045;-85
2022/02/27 11:16:07;;;;;;;66.82;33.45;;;;;;;3.08;100.00;97973.75;5018614;28;20120;-83
2022/02/27 11:18:32;;;;;;;62.00;32.25;;;;;;;3.16;100.00;97992.94;5038062;28;20028;-83